createdAt,value
2018-05-16T00:00:26.003Z,21.6
2018-05-16T00:01:31.159Z,21.6
2018-05-16T00:02:36.597Z,21.6
2018-05-16T00:03:41.909Z,21.6
2018-05-16T00:04:46.777Z,21.6
2018-05-16T00:05:51.921Z,21.6
2018-05-16T00:06:57.363Z,21.6
2018-05-16T00:08:02.508Z,21.6
2018-05-16T00:09:07.377Z,21.6
2018-05-16T00:10:12.826Z,21.6
2018-05-16T00:11:18.257Z,21.6
2018-05-16T00:12:23.122Z,21.6
2018-05-16T00:13:43.186Z,21.6
2018-05-16T00:14:48.338Z,21.6
2018-05-16T00:15:53.768Z,21.6
2018-05-16T00:16:59.214Z,21.6
2018-05-16T00:18:04.080Z,21.6
2018-05-16T00:19:09.612Z,21.6
2018-05-16T00:20:14.801Z,21.6
2018-05-16T00:21:19.952Z,21.6
2018-05-16T00:22:26.960Z,21.6
2018-05-16T00:23:32.395Z,21.6
2018-05-16T00:24:37.823Z,21.6
2018-05-16T00:25:42.977Z,21.6
2018-05-16T00:26:48.411Z,21.6
2018-05-16T00:27:54.174Z,21.6
2018-05-16T00:28:59.660Z,21.6
2018-05-16T00:30:04.815Z,21.6
2018-05-16T00:31:10.396Z,21.6
2018-05-16T00:32:14.980Z,21.6
2018-05-16T00:33:20.137Z,21.6
2018-05-16T00:34:25.918Z,21.6
2018-05-16T00:35:31.075Z,21.6
2018-05-16T00:36:36.353Z,21.6
2018-05-16T00:37:41.784Z,21.6
2018-05-16T00:38:47.216Z,21.6
2018-05-16T00:39:52.366Z,21.6
2018-05-16T00:40:57.799Z,21.6
2018-05-16T00:42:02.688Z,21.6
2018-05-16T00:43:08.171Z,21.6
2018-05-16T00:44:13.325Z,21.6
2018-05-16T00:45:18.765Z,21.6
2018-05-16T00:46:23.632Z,21.6
2018-05-16T00:47:29.072Z,21.6
2018-05-16T00:48:34.603Z,21.6
2018-05-16T00:49:40.091Z,21.6
2018-05-16T00:50:45.521Z,21.6
2018-05-16T00:51:50.957Z,21.6
2018-05-16T00:52:56.388Z,21.6
2018-05-16T00:54:01.262Z,21.6
2018-05-16T00:55:06.420Z,21.6
2018-05-16T00:56:11.850Z,21.6
2018-05-16T00:57:17.344Z,21.6
2018-05-16T00:58:22.775Z,21.6
2018-05-16T00:59:27.631Z,21.6
2018-05-16T01:00:32.896Z,21.6
2018-05-16T01:01:38.352Z,21.6
2018-05-16T01:02:43.220Z,21.6
2018-05-16T01:03:48.652Z,21.6
2018-05-16T01:04:54.087Z,21.6
2018-05-16T01:05:59.526Z,21.6
2018-05-16T01:07:04.391Z,21.6
2018-05-16T01:08:09.262Z,21.6
2018-05-16T01:09:14.696Z,21.6
2018-05-16T01:10:19.890Z,21.6
2018-05-16T01:11:24.756Z,21.6
2018-05-16T01:12:29.891Z,21.6
2018-05-16T01:13:35.368Z,21.6
2018-05-16T01:14:40.520Z,21.6
2018-05-16T01:15:46.106Z,21.6
2018-05-16T01:16:51.539Z,21.6
2018-05-16T01:17:56.975Z,21.6
2018-05-16T01:19:02.269Z,21.6
2018-05-16T01:20:07.145Z,21.6
2018-05-16T01:21:12.307Z,21.6
2018-05-16T01:22:16.897Z,21.6
2018-05-16T01:23:22.051Z,21.6
2018-05-16T01:24:27.783Z,21.6
2018-05-16T01:25:32.666Z,21.6
2018-05-16T01:26:37.827Z,21.6
2018-05-16T01:27:43.135Z,21.6
2018-05-16T01:28:47.730Z,21.6
2018-05-16T01:29:52.892Z,21.6
2018-05-16T01:30:58.430Z,21.6
2018-05-16T01:32:03.860Z,21.6
2018-05-16T01:33:08.723Z,21.6
2018-05-16T01:34:14.411Z,21.6
2018-05-16T01:35:19.564Z,21.6
2018-05-16T01:36:25.308Z,21.6
2018-05-16T01:37:30.167Z,21.6
2018-05-16T01:38:35.324Z,21.6
2018-05-16T01:39:40.696Z,21.6
2018-05-16T01:40:46.130Z,21.6
2018-05-16T01:41:51.271Z,21.6
2018-05-16T01:42:56.322Z,21.6
2018-05-16T01:44:01.170Z,21.6
2018-05-16T01:45:05.778Z,21.6
2018-05-16T01:46:11.105Z,21.6
2018-05-16T01:47:15.680Z,21.7
2018-05-16T01:48:21.117Z,21.6
2018-05-16T01:49:26.319Z,21.7
2018-05-16T01:50:30.919Z,21.7
2018-05-16T01:51:36.006Z,21.7
2018-05-16T01:52:41.164Z,21.7
2018-05-16T01:53:46.331Z,21.7
2018-05-16T01:54:51.472Z,21.7
2018-05-16T01:55:56.929Z,21.7
2018-05-16T01:57:02.094Z,21.7
2018-05-16T01:58:07.006Z,21.7
2018-05-16T01:59:11.888Z,21.7
2018-05-16T02:00:17.329Z,21.7
2018-05-16T02:01:22.921Z,21.7
2018-05-16T02:02:28.360Z,21.7
2018-05-16T02:03:34.091Z,21.7
2018-05-16T02:04:39.524Z,21.7
2018-05-16T02:05:44.397Z,21.7
2018-05-16T02:06:49.713Z,21.7
2018-05-16T02:07:54.858Z,21.7
2018-05-16T02:09:00.023Z,21.7
2018-05-16T02:10:04.918Z,21.7
2018-05-16T02:11:10.091Z,21.7
2018-05-16T02:12:15.250Z,21.7
2018-05-16T02:13:20.655Z,21.7
2018-05-16T02:14:25.822Z,21.7
2018-05-16T02:15:31.097Z,21.7
2018-05-16T02:16:35.689Z,21.7
2018-05-16T02:17:40.849Z,21.7
2018-05-16T02:18:45.885Z,21.8
2018-05-16T02:19:51.315Z,21.8
2018-05-16T02:20:56.750Z,21.8
2018-05-16T02:22:02.053Z,21.8
2018-05-16T02:23:06.631Z,21.8
2018-05-16T02:24:11.502Z,21.8
2018-05-16T02:25:16.935Z,21.8
2018-05-16T02:26:22.094Z,21.8
2018-05-16T02:27:27.983Z,21.8
2018-05-16T02:28:33.151Z,21.8
2018-05-16T02:29:38.317Z,21.8
2018-05-16T02:30:43.326Z,21.8
2018-05-16T02:31:48.199Z,21.8
2018-05-16T02:32:53.620Z,21.8
2018-05-16T02:33:58.646Z,21.8
2018-05-16T02:35:03.804Z,21.8
2018-05-16T02:36:08.112Z,21.8
2018-05-16T02:37:13.647Z,21.8
2018-05-16T02:38:18.981Z,21.8
2018-05-16T02:39:24.493Z,21.8
2018-05-16T02:40:28.812Z,21.8
2018-05-16T02:41:33.962Z,21.8
2018-05-16T02:42:39.699Z,21.9
2018-05-16T02:43:44.862Z,21.9
2018-05-16T02:44:50.293Z,21.9
2018-05-16T02:45:55.171Z,21.8
2018-05-16T02:47:00.337Z,21.9
2018-05-16T02:48:05.496Z,21.9
2018-05-16T02:49:10.379Z,21.9
2018-05-16T02:50:15.531Z,21.9
2018-05-16T02:51:20.711Z,21.9
2018-05-16T02:52:26.125Z,21.9
2018-05-16T02:53:31.555Z,21.9
2018-05-16T02:54:37.253Z,21.9
2018-05-16T02:55:41.847Z,21.9
2018-05-16T02:56:46.704Z,21.9
2018-05-16T02:57:52.357Z,21.9
2018-05-16T02:58:57.796Z,21.9
2018-05-16T03:00:02.973Z,21.9
2018-05-16T03:01:07.846Z,21.9
2018-05-16T03:02:13.279Z,21.9
2018-05-16T03:03:18.451Z,21.9
2018-05-16T03:04:24.141Z,21.9
2018-05-16T03:05:29.313Z,21.9
2018-05-16T03:06:35.002Z,21.9
2018-05-16T03:07:40.439Z,21.9
2018-05-16T03:08:45.609Z,21.9
2018-05-16T03:09:51.018Z,21.9
2018-05-16T03:10:56.478Z,21.9
2018-05-16T03:12:01.913Z,21.9
2018-05-16T03:13:06.295Z,21.9
2018-05-16T03:14:11.221Z,21.9
2018-05-16T03:15:15.824Z,21.9
2018-05-16T03:16:21.282Z,21.9
2018-05-16T03:17:26.443Z,21.9
2018-05-16T03:18:31.837Z,21.9
2018-05-16T03:19:36.993Z,21.9
2018-05-16T03:20:42.165Z,21.9
2018-05-16T03:21:47.558Z,21.9
2018-05-16T03:22:53.011Z,21.9
2018-05-16T03:23:58.178Z,21.9
2018-05-16T03:25:03.847Z,21.9
2018-05-16T03:26:08.442Z,21.9
2018-05-16T03:27:13.590Z,21.9
2018-05-16T03:28:18.716Z,21.9
2018-05-16T03:29:23.594Z,21.9
2018-05-16T03:30:28.878Z,21.9
2018-05-16T03:31:34.301Z,21.9
2018-05-16T03:32:39.730Z,21.9
2018-05-16T03:33:45.171Z,21.9
2018-05-16T03:34:50.315Z,21.9
2018-05-16T03:35:55.474Z,22
2018-05-16T03:37:01.207Z,21.9
2018-05-16T03:38:05.813Z,21.9
2018-05-16T03:39:10.675Z,21.9
2018-05-16T03:40:16.183Z,21.9
2018-05-16T03:41:21.084Z,21.9
2018-05-16T03:42:26.318Z,21.9
2018-05-16T03:43:31.753Z,22
2018-05-16T03:44:36.620Z,22
2018-05-16T03:45:42.513Z,22
2018-05-16T03:46:47.384Z,22
2018-05-16T03:47:51.965Z,22
2018-05-16T03:48:57.484Z,22
2018-05-16T03:50:02.642Z,22
2018-05-16T03:51:08.089Z,22
2018-05-16T03:52:13.821Z,22
2018-05-16T03:53:19.259Z,22
2018-05-16T03:54:24.406Z,22
2018-05-16T03:55:29.002Z,22
2018-05-16T03:56:34.162Z,22
2018-05-16T03:57:40.047Z,22
2018-05-16T03:58:45.192Z,22
2018-05-16T03:59:50.635Z,22
2018-05-16T04:00:55.898Z,22
2018-05-16T04:02:00.782Z,22
2018-05-16T04:03:05.369Z,22
2018-05-16T04:04:10.823Z,22
2018-05-16T04:05:15.124Z,22
2018-05-16T04:06:20.283Z,22
2018-05-16T04:07:26.265Z,22
2018-05-16T04:08:31.428Z,22
2018-05-16T04:09:36.843Z,22
2018-05-16T04:10:41.987Z,22
2018-05-16T04:11:46.879Z,22
2018-05-16T04:12:52.493Z,22
2018-05-16T04:13:57.927Z,22
2018-05-16T04:15:03.365Z,22
2018-05-16T04:16:08.484Z,22
2018-05-16T04:17:13.926Z,22
2018-05-16T04:18:19.081Z,22
2018-05-16T04:19:23.799Z,22
2018-05-16T04:20:28.396Z,22
2018-05-16T04:21:34.028Z,22
2018-05-16T04:22:39.174Z,22
2018-05-16T04:23:44.386Z,22
2018-05-16T04:24:50.217Z,22
2018-05-16T04:25:55.086Z,22
2018-05-16T04:27:00.602Z,22
2018-05-16T04:28:05.824Z,22
2018-05-16T04:29:10.684Z,22
2018-05-16T04:30:15.546Z,22
2018-05-16T04:31:21.032Z,22.1
2018-05-16T04:32:26.472Z,22
2018-05-16T04:33:32.423Z,22.1
2018-05-16T04:34:37.854Z,22.1
2018-05-16T04:35:42.730Z,22.1
2018-05-16T04:36:48.208Z,22.1
2018-05-16T04:37:53.647Z,22.1
2018-05-16T04:38:58.232Z,22.1
2018-05-16T04:40:03.781Z,22.1
2018-05-16T04:41:08.927Z,22.1
2018-05-16T04:42:14.280Z,22.1
2018-05-16T04:43:19.558Z,22.1
2018-05-16T04:44:24.713Z,22.1
2018-05-16T04:45:30.188Z,22.1
2018-05-16T04:46:35.345Z,22.1
2018-05-16T04:47:40.216Z,22.1
2018-05-16T04:48:45.832Z,22.1
2018-05-16T04:49:50.691Z,22.1
2018-05-16T04:50:55.858Z,22.1
2018-05-16T04:52:01.269Z,22.1
2018-05-16T04:53:05.016Z,22.1
2018-05-16T04:54:10.450Z,22.1
2018-05-16T04:55:15.904Z,22.1
2018-05-16T04:56:21.374Z,22.1
2018-05-16T04:57:27.226Z,22.1
2018-05-16T04:58:32.390Z,22.1
2018-05-16T04:59:37.554Z,22.1
2018-05-16T05:00:43.435Z,22.1
2018-05-16T05:01:48.882Z,22.1
2018-05-16T05:02:54.082Z,22.1
2018-05-16T05:03:59.767Z,22.1
2018-05-16T05:05:04.645Z,22.1
2018-05-16T05:06:10.076Z,22.1
2018-05-16T05:07:15.628Z,22.1
2018-05-16T05:08:21.062Z,22.1
2018-05-16T05:09:27.059Z,22.1
2018-05-16T05:10:32.205Z,22.1
2018-05-16T05:11:37.642Z,22.1
2018-05-16T05:12:43.531Z,22.1
2018-05-16T05:13:48.694Z,22.1
2018-05-16T05:14:53.859Z,22.1
2018-05-16T05:15:59.352Z,22.1
2018-05-16T05:17:04.784Z,22.1
2018-05-16T05:18:09.732Z,22.1
2018-05-16T05:19:15.643Z,22.1
2018-05-16T05:20:20.804Z,22.1
2018-05-16T05:21:26.738Z,22.1
2018-05-16T05:22:31.906Z,22.1
2018-05-16T05:23:37.339Z,22.1
2018-05-16T05:24:43.187Z,22.1
2018-05-16T05:25:48.764Z,22.1
2018-05-16T05:26:53.908Z,22.2
2018-05-16T05:27:59.463Z,22.2
2018-05-16T05:29:04.971Z,22.2
2018-05-16T05:30:10.126Z,22.2
2018-05-16T05:31:15.365Z,22.2
2018-05-16T05:32:20.799Z,22.2
2018-05-16T05:33:26.247Z,22.2
2018-05-16T05:34:31.678Z,22.2
2018-05-16T05:35:36.566Z,22.2
2018-05-16T05:36:42.264Z,22.2
2018-05-16T05:37:47.128Z,22.2
2018-05-16T05:38:52.577Z,22.2
2018-05-16T05:39:58.410Z,22.2
2018-05-16T05:41:03.848Z,22.2
2018-05-16T05:42:09.003Z,22.2
2018-05-16T05:43:14.193Z,22.2
2018-05-16T05:44:19.397Z,22.2
2018-05-16T05:46:44.441Z,22.2
2018-05-16T05:47:49.910Z,22.2
2018-05-16T05:48:55.901Z,22.2
2018-05-16T05:50:01.338Z,22.2
2018-05-16T05:51:06.208Z,22.2
2018-05-16T05:52:11.660Z,22.2
2018-05-16T05:53:17.009Z,22.2
2018-05-16T05:54:21.885Z,22.2
2018-05-16T05:55:27.448Z,22.2
2018-05-16T05:56:32.907Z,22.2
2018-05-16T05:57:38.336Z,22.2
2018-05-16T05:58:43.772Z,22.2
2018-05-16T05:59:48.632Z,22.2
2018-05-16T06:00:54.038Z,22.3
2018-05-16T06:01:59.480Z,22.3
2018-05-16T06:03:04.365Z,22.3
2018-05-16T06:04:09.810Z,22.3
2018-05-16T06:05:14.978Z,22.3
2018-05-16T06:06:20.434Z,22.3
2018-05-16T06:07:26.548Z,22.3
2018-05-16T06:08:31.139Z,22.3
2018-05-16T06:09:36.882Z,22.3
2018-05-16T06:10:42.316Z,22.3
2018-05-16T06:11:47.468Z,22.3
2018-05-16T06:12:53.201Z,22.3
2018-05-16T06:13:58.637Z,22.3
2018-05-16T06:15:03.792Z,22.3
2018-05-16T06:16:09.343Z,22.3
2018-05-16T06:17:13.924Z,22.3
2018-05-16T06:18:19.369Z,22.3
2018-05-16T06:19:39.975Z,22.3
2018-05-16T06:20:45.106Z,22.3
2018-05-16T06:21:50.515Z,22.3
2018-05-16T06:22:55.681Z,22.3
2018-05-16T06:24:01.125Z,22.3
2018-05-16T06:25:05.689Z,22.3
2018-05-16T06:26:10.010Z,22.3
2018-05-16T06:27:14.985Z,22.3
2018-05-16T06:28:21.162Z,22.3
2018-05-16T06:29:26.339Z,22.3
2018-05-16T06:30:31.880Z,22.3
2018-05-16T06:31:37.315Z,22.3
2018-05-16T06:32:42.774Z,22.3
2018-05-16T06:33:48.411Z,22.3
2018-05-16T06:34:53.871Z,22.3
2018-05-16T06:35:58.730Z,22.3
2018-05-16T06:37:04.130Z,22.3
2018-05-16T06:38:08.431Z,22.3
2018-05-16T06:39:13.878Z,22.4
2018-05-16T06:40:19.308Z,22.4
2018-05-16T06:41:24.775Z,22.4
2018-05-16T06:42:30.571Z,22.4
2018-05-16T06:43:35.732Z,22.4
2018-05-16T06:44:40.886Z,22.4
2018-05-16T06:45:46.756Z,22.4
2018-05-16T06:46:52.177Z,22.4
2018-05-16T06:47:57.660Z,22.4
2018-05-16T06:49:03.396Z,22.4
2018-05-16T06:50:08.277Z,22.4
2018-05-16T06:51:13.445Z,22.4
2018-05-16T06:52:18.917Z,22.4
2018-05-16T06:53:24.359Z,22.4
2018-05-16T06:54:29.949Z,22.4
2018-05-16T06:55:34.812Z,22.4
2018-05-16T06:56:39.982Z,22.4
2018-05-16T06:57:45.772Z,22.4
2018-05-16T06:58:50.649Z,22.4
2018-05-16T06:59:55.804Z,22.4
2018-05-16T07:01:01.205Z,22.4
2018-05-16T07:02:06.384Z,22.4
2018-05-16T07:03:11.551Z,22.4
2018-05-16T07:04:16.668Z,22.4
2018-05-16T07:05:22.099Z,22.4
2018-05-16T07:06:27.847Z,22.4
2018-05-16T07:07:33.524Z,22.4
2018-05-16T07:08:38.694Z,22.4
2018-05-16T07:09:43.565Z,22.4
2018-05-16T07:10:48.764Z,22.4
2018-05-16T07:11:54.231Z,22.4
2018-05-16T07:13:00.149Z,22.5
2018-05-16T07:14:04.725Z,22.5
2018-05-16T07:15:09.581Z,22.5
2018-05-16T07:16:14.955Z,22.5
2018-05-16T07:17:19.815Z,22.5
2018-05-16T07:18:25.373Z,22.5
2018-05-16T07:19:30.805Z,22.5
2018-05-16T07:20:35.683Z,22.5
2018-05-16T07:21:41.433Z,22.5
2018-05-16T07:22:46.879Z,22.5
2018-05-16T07:23:52.133Z,22.5
2018-05-16T07:24:57.606Z,22.5
2018-05-16T07:26:03.216Z,22.5
2018-05-16T07:27:07.855Z,22.5
2018-05-16T07:28:13.225Z,22.5
2018-05-16T07:29:18.662Z,22.5
2018-05-16T07:30:23.562Z,22.5
2018-05-16T07:31:43.944Z,22.5
2018-05-16T07:32:49.388Z,22.5
2018-05-16T07:33:54.795Z,22.5
2018-05-16T07:35:00.234Z,22.5
2018-05-16T07:36:04.810Z,22.5
2018-05-16T07:37:09.416Z,22.5
2018-05-16T07:38:15.168Z,22.5
2018-05-16T07:39:20.604Z,22.5
2018-05-16T07:40:26.222Z,22.5
2018-05-16T07:41:31.389Z,22.5
2018-05-16T07:42:37.181Z,22.5
2018-05-16T07:43:42.053Z,22.5
2018-05-16T07:44:47.203Z,22.5
2018-05-16T07:45:52.945Z,22.5
2018-05-16T07:46:58.409Z,22.5
2018-05-16T07:48:03.706Z,22.5
2018-05-16T07:49:09.387Z,22.6
2018-05-16T07:50:14.554Z,22.6
2018-05-16T07:51:20.134Z,22.6
2018-05-16T07:52:26.045Z,22.6
2018-05-16T07:53:31.483Z,22.6
2018-05-16T07:54:36.951Z,22.6
2018-05-16T07:55:42.111Z,22.6
2018-05-16T07:56:46.679Z,22.6
2018-05-16T07:57:52.423Z,22.6
2018-05-16T07:58:57.912Z,22.6
2018-05-16T08:00:02.789Z,22.6
2018-05-16T08:01:08.193Z,22.6
2018-05-16T08:02:13.344Z,22.6
2018-05-16T08:03:18.912Z,22.6
2018-05-16T08:04:25.077Z,22.6
2018-05-16T08:05:30.253Z,22.6
2018-05-16T08:06:35.770Z,22.6
2018-05-16T08:07:40.938Z,22.6
2018-05-16T08:08:46.388Z,22.6
2018-05-16T08:09:51.803Z,22.6
2018-05-16T08:10:56.971Z,22.6
2018-05-16T08:12:02.410Z,22.6
2018-05-16T08:13:07.901Z,22.6
2018-05-16T08:14:12.991Z,22.5
2018-05-16T08:15:18.432Z,22.6
2018-05-16T08:16:24.323Z,22.6
2018-05-16T08:17:29.235Z,22.6
2018-05-16T08:18:35.023Z,22.6
2018-05-16T08:19:40.178Z,22.6
2018-05-16T08:20:45.332Z,22.6
2018-05-16T08:21:50.800Z,22.6
2018-05-16T08:22:56.938Z,22.6
2018-05-16T08:24:02.098Z,22.6
2018-05-16T08:25:07.283Z,22.6
2018-05-16T08:26:12.715Z,22.6
2018-05-16T08:27:17.872Z,22.6
2018-05-16T08:28:23.574Z,22.6
2018-05-16T08:29:28.721Z,22.6
2018-05-16T08:30:34.509Z,22.6
2018-05-16T08:31:39.959Z,22.6
2018-05-16T08:32:45.440Z,22.6
2018-05-16T08:33:50.674Z,22.6
2018-05-16T08:34:56.127Z,22.6
2018-05-16T08:36:01.568Z,22.6
2018-05-16T08:37:05.583Z,22.6
2018-05-16T08:38:10.454Z,22.6
2018-05-16T08:39:15.896Z,22.6
2018-05-16T08:40:21.154Z,22.6
2018-05-16T08:41:26.608Z,22.6
2018-05-16T08:42:32.301Z,22.6
2018-05-16T08:43:37.474Z,22.6
2018-05-16T08:44:42.630Z,22.7
2018-05-16T08:45:48.428Z,22.7
2018-05-16T08:46:53.009Z,22.7
2018-05-16T08:47:58.220Z,22.7
2018-05-16T08:49:03.383Z,22.7
2018-05-16T08:50:08.578Z,22.7
2018-05-16T08:51:13.944Z,22.7
2018-05-16T08:52:19.463Z,22.7
2018-05-16T08:53:24.916Z,22.7
2018-05-16T08:54:30.592Z,22.7
2018-05-16T08:55:35.721Z,22.7
2018-05-16T08:56:40.873Z,22.7
2018-05-16T08:57:46.427Z,22.7
2018-05-16T08:58:51.572Z,22.7
2018-05-16T08:59:57.003Z,22.7
2018-05-16T09:01:02.270Z,22.7
2018-05-16T09:02:06.575Z,22.7
2018-05-16T09:03:11.738Z,22.7
2018-05-16T09:04:17.477Z,22.7
2018-05-16T09:05:22.622Z,22.7
2018-05-16T09:06:27.675Z,22.7
2018-05-16T09:07:33.349Z,22.7
2018-05-16T09:08:38.570Z,22.8
2018-05-16T09:09:44.260Z,22.7
2018-05-16T09:10:49.692Z,22.7
2018-05-16T09:11:54.860Z,22.7
2018-05-16T09:13:00.663Z,22.7
2018-05-16T09:14:05.556Z,22.7
2018-05-16T09:15:10.445Z,22.7
2018-05-16T09:16:16.842Z,22.7
2018-05-16T09:17:22.370Z,22.7
2018-05-16T09:18:28.077Z,22.7
2018-05-16T09:19:33.506Z,22.7
2018-05-16T09:20:38.627Z,22.7
2018-05-16T09:21:43.880Z,22.8
2018-05-16T09:22:49.037Z,22.8
2018-05-16T09:23:54.202Z,22.7
2018-05-16T09:24:59.843Z,22.7
2018-05-16T09:26:05.388Z,22.7
2018-05-16T09:27:10.819Z,22.8
2018-05-16T09:28:15.990Z,22.7
2018-05-16T09:29:21.147Z,22.8
2018-05-16T09:30:27.045Z,22.8
2018-05-16T09:31:32.268Z,22.7
2018-05-16T09:32:37.139Z,22.7
2018-05-16T09:33:43.127Z,22.7
2018-05-16T09:34:48.014Z,22.7
2018-05-16T09:35:53.111Z,22.7
2018-05-16T09:36:58.329Z,22.7
2018-05-16T09:38:03.761Z,22.7
2018-05-16T09:39:09.198Z,22.7
2018-05-16T09:40:14.868Z,22.7
2018-05-16T09:41:20.384Z,22.7
2018-05-16T09:42:26.093Z,22.7
2018-05-16T09:43:31.254Z,22.7
2018-05-16T09:44:35.837Z,22.7
2018-05-16T09:45:41.264Z,22.7
2018-05-16T09:46:47.606Z,22.7
2018-05-16T09:47:53.046Z,22.7
2018-05-16T09:48:58.510Z,22.7
2018-05-16T09:50:03.394Z,22.7
2018-05-16T09:51:07.990Z,22.7
2018-05-16T09:52:13.429Z,22.8
2018-05-16T09:53:18.288Z,22.7
2018-05-16T09:54:23.443Z,22.7
2018-05-16T09:55:28.681Z,22.8
2018-05-16T09:56:33.837Z,22.7
2018-05-16T09:57:39.605Z,22.7
2018-05-16T09:58:44.861Z,22.7
2018-05-16T09:59:50.000Z,22.8
2018-05-16T10:00:55.558Z,22.7
2018-05-16T10:02:00.713Z,22.7
2018-05-16T10:03:05.879Z,22.8
2018-05-16T10:04:11.833Z,22.8
2018-05-16T10:05:17.265Z,22.7
2018-05-16T10:06:22.704Z,22.8
2018-05-16T10:07:29.172Z,22.7
2018-05-16T10:08:34.341Z,22.8
2018-05-16T10:09:39.851Z,22.7
2018-05-16T10:10:45.653Z,22.8
2018-05-16T10:11:50.828Z,22.8
2018-05-16T10:12:56.055Z,22.7
2018-05-16T10:14:01.223Z,22.7
2018-05-16T10:15:06.379Z,22.7
2018-05-16T10:16:11.545Z,22.7
2018-05-16T10:17:16.741Z,22.8
2018-05-16T10:18:21.610Z,22.8
2018-05-16T10:19:27.412Z,22.8
2018-05-16T10:20:32.572Z,22.8
2018-05-16T10:21:37.837Z,22.8
2018-05-16T10:22:43.296Z,22.8
2018-05-16T10:23:48.266Z,22.8
2018-05-16T10:24:54.414Z,22.8
2018-05-16T10:25:59.937Z,22.8
2018-05-16T10:27:04.534Z,22.8
2018-05-16T10:28:09.989Z,22.8
2018-05-16T10:29:15.421Z,22.8
2018-05-16T10:30:20.292Z,22.8
2018-05-16T10:31:26.229Z,22.8
2018-05-16T10:32:31.722Z,22.8
2018-05-16T10:33:37.467Z,22.8
2018-05-16T10:34:42.340Z,22.8
2018-05-16T10:35:47.443Z,22.8
2018-05-16T10:36:52.904Z,22.8
2018-05-16T10:37:57.779Z,22.8
2018-05-16T10:39:02.947Z,22.8
2018-05-16T10:40:08.054Z,22.8
2018-05-16T10:41:12.646Z,22.8
2018-05-16T10:42:18.506Z,22.8
2018-05-16T10:43:24.346Z,22.8
2018-05-16T10:44:29.985Z,22.8
2018-05-16T10:45:35.764Z,22.8
2018-05-16T10:46:40.919Z,22.8
2018-05-16T10:47:46.355Z,22.8
2018-05-16T10:48:51.809Z,22.8
2018-05-16T10:49:57.307Z,22.8
2018-05-16T10:51:02.509Z,22.8
2018-05-16T10:52:07.390Z,22.8
2018-05-16T10:53:13.017Z,22.8
2018-05-16T10:54:17.599Z,22.8
2018-05-16T10:55:22.770Z,22.8
2018-05-16T10:56:28.161Z,22.8
2018-05-16T10:57:33.429Z,22.8
2018-05-16T10:58:38.603Z,22.8
2018-05-16T10:59:43.762Z,22.8
2018-05-16T11:00:49.531Z,22.9
2018-05-16T11:01:54.986Z,22.9
2018-05-16T11:03:00.464Z,22.9
2018-05-16T11:04:06.130Z,22.9
2018-05-16T11:05:11.310Z,22.9
2018-05-16T11:06:16.728Z,22.9
2018-05-16T11:07:21.983Z,23
2018-05-16T11:08:26.850Z,23
2018-05-16T11:09:32.061Z,23
2018-05-16T11:10:37.725Z,23
2018-05-16T11:11:43.243Z,22.9
2018-05-16T11:12:48.700Z,22.9
2018-05-16T11:13:54.145Z,22.9
2018-05-16T11:14:59.653Z,22.9
2018-05-16T11:16:05.389Z,22.9
2018-05-16T11:17:10.559Z,22.9
2018-05-16T11:18:16.676Z,22.9
2018-05-16T11:19:22.082Z,22.9
2018-05-16T11:20:26.988Z,22.9
2018-05-16T11:21:32.635Z,22.9
2018-05-16T11:22:37.503Z,22.9
2018-05-16T11:23:42.665Z,22.8
2018-05-16T11:24:48.358Z,22.9
2018-05-16T11:25:53.503Z,22.8
2018-05-16T11:26:58.939Z,22.9
2018-05-16T11:28:03.817Z,22.9
2018-05-16T11:29:08.986Z,22.8
2018-05-16T11:30:14.418Z,22.8
2018-05-16T11:31:20.110Z,22.9
2018-05-16T11:32:25.543Z,22.8
2018-05-16T11:33:31.101Z,22.8
2018-05-16T11:34:36.558Z,22.8
2018-05-16T11:35:41.711Z,22.8
2018-05-16T11:36:46.966Z,22.8
2018-05-16T11:37:52.116Z,22.8
2018-05-16T11:38:57.768Z,22.8
2018-05-16T11:40:03.277Z,22.8
2018-05-16T11:41:08.429Z,22.8
2018-05-16T11:42:13.796Z,22.8
2018-05-16T11:43:19.084Z,22.8
2018-05-16T11:44:23.954Z,22.8
2018-05-16T11:45:29.245Z,22.8
2018-05-16T11:46:34.410Z,22.8
2018-05-16T11:47:39.278Z,22.8
2018-05-16T11:48:44.556Z,22.8
2018-05-16T11:49:50.259Z,22.8
2018-05-16T11:50:55.527Z,22.8
2018-05-16T11:52:01.022Z,22.8
2018-05-16T11:53:05.611Z,22.8
2018-05-16T11:54:10.799Z,22.8
2018-05-16T11:55:16.683Z,22.8
2018-05-16T11:56:21.569Z,22.8
2018-05-16T11:57:26.751Z,22.8
2018-05-16T11:58:31.896Z,22.8
2018-05-16T11:59:37.049Z,22.8
2018-05-16T12:00:42.555Z,22.8
2018-05-16T12:01:47.422Z,22.8
2018-05-16T12:02:53.123Z,22.8
2018-05-16T12:03:59.492Z,22.8
2018-05-16T12:05:04.085Z,22.8
2018-05-16T12:06:08.970Z,22.8
2018-05-16T12:07:14.734Z,22.7
2018-05-16T12:08:19.899Z,22.7
2018-05-16T12:09:25.507Z,22.7
2018-05-16T12:10:30.151Z,22.7
2018-05-16T12:11:35.297Z,22.7
2018-05-16T12:12:41.142Z,22.7
2018-05-16T12:13:46.022Z,22.7
2018-05-16T12:14:50.900Z,22.7
2018-05-16T12:15:57.349Z,22.7
2018-05-16T12:17:02.501Z,22.7
2018-05-16T12:18:07.653Z,22.7
2018-05-16T12:19:13.251Z,22.7
2018-05-16T12:20:18.366Z,22.7
2018-05-16T12:21:23.803Z,22.7
2018-05-16T12:22:43.999Z,22.7
2018-05-16T12:23:48.881Z,22.7
2018-05-16T12:24:54.334Z,22.7
2018-05-16T12:25:59.201Z,22.8
2018-05-16T12:27:04.356Z,22.8
2018-05-16T12:28:09.354Z,22.8
2018-05-16T12:29:14.850Z,22.8
2018-05-16T12:30:20.450Z,22.8
2018-05-16T12:31:26.203Z,22.7
2018-05-16T12:32:31.062Z,22.8
2018-05-16T12:33:36.792Z,22.8
2018-05-16T12:34:41.946Z,22.9
2018-05-16T12:35:47.378Z,22.9
2018-05-16T12:36:53.417Z,22.9
2018-05-16T12:37:57.990Z,22.9
2018-05-16T12:39:02.911Z,22.9
2018-05-16T12:40:08.357Z,22.9
2018-05-16T12:41:13.527Z,22.9
2018-05-16T12:42:19.164Z,22.9
2018-05-16T12:43:24.349Z,22.9
2018-05-16T12:44:30.027Z,22.9
2018-05-16T12:45:35.529Z,22.9
2018-05-16T12:46:41.022Z,22.9
2018-05-16T12:47:46.600Z,22.9
2018-05-16T12:48:52.439Z,22.9
2018-05-16T12:49:57.886Z,22.8
2018-05-16T12:51:03.047Z,22.8
2018-05-16T12:52:08.835Z,22.7
2018-05-16T12:53:14.265Z,22.7
2018-05-16T12:54:19.979Z,22.7
2018-05-16T12:55:25.525Z,22.7
2018-05-16T12:56:31.175Z,22.6
2018-05-16T12:57:36.907Z,22.6
2018-05-16T12:58:41.785Z,22.6
2018-05-16T12:59:47.151Z,22.6
2018-05-16T13:00:52.515Z,22.6
2018-05-16T13:01:57.668Z,22.6
2018-05-16T13:03:03.103Z,22.5
2018-05-16T13:04:08.385Z,22.5
2018-05-16T13:05:13.869Z,22.5
2018-05-16T13:06:19.029Z,22.5
2018-05-16T13:07:24.714Z,22.5
2018-05-16T13:08:29.308Z,22.5
2018-05-16T13:09:35.390Z,22.5
2018-05-16T13:10:40.282Z,22.5
2018-05-16T13:11:45.498Z,22.4
2018-05-16T13:12:50.308Z,22.4
2018-05-16T13:13:55.912Z,22.4
2018-05-16T13:15:01.753Z,22.4
2018-05-16T13:16:06.088Z,22.4
2018-05-16T13:17:11.248Z,22.4
2018-05-16T13:18:16.400Z,22.4
2018-05-16T13:19:21.849Z,22.4
2018-05-16T13:20:26.717Z,22.4
2018-05-16T13:21:32.425Z,22.4
2018-05-16T13:22:38.765Z,22.4
2018-05-16T13:23:43.931Z,22.4
2018-05-16T13:24:49.213Z,22.3
2018-05-16T13:25:54.085Z,22.3
2018-05-16T13:26:59.624Z,22.4
2018-05-16T13:28:04.913Z,22.4
2018-05-16T13:29:09.510Z,22.4
2018-05-16T13:30:14.945Z,22.3
2018-05-16T13:31:20.968Z,22.3
2018-05-16T13:32:26.416Z,22.3
2018-05-16T13:33:32.005Z,22.3
2018-05-16T13:34:37.509Z,22.2
2018-05-16T13:35:42.705Z,22.2
2018-05-16T13:36:48.300Z,22.2
2018-05-16T13:37:53.452Z,22.2
2018-05-16T13:38:58.597Z,22.2
2018-05-16T13:40:04.067Z,22.2
2018-05-16T13:41:09.214Z,22.2
2018-05-16T13:42:14.385Z,22.1
2018-05-16T13:43:19.839Z,22.2
2018-05-16T13:44:25.040Z,22.2
2018-05-16T13:45:29.316Z,22.1
2018-05-16T13:46:34.791Z,22.1
2018-05-16T13:47:40.060Z,22.1
2018-05-16T13:48:46.316Z,22.1
2018-05-16T13:49:51.817Z,22.1
2018-05-16T13:50:56.741Z,22.1
2018-05-16T13:52:02.342Z,22.1
2018-05-16T13:53:07.501Z,22.1
2018-05-16T13:54:12.647Z,22.1
2018-05-16T13:55:17.491Z,22.1
2018-05-16T13:56:22.684Z,22.1
2018-05-16T13:57:28.777Z,22
2018-05-16T13:58:33.951Z,22
2018-05-16T13:59:39.244Z,22.1
2018-05-16T14:00:44.772Z,22.1
2018-05-16T14:01:49.345Z,22.1
2018-05-16T14:02:53.932Z,22.1
2018-05-16T14:03:59.613Z,22.1
2018-05-16T14:05:05.010Z,22.1
2018-05-16T14:06:10.435Z,22.1
2018-05-16T14:07:16.783Z,22.1
2018-05-16T14:08:21.942Z,22.2
2018-05-16T14:09:27.622Z,22.1
2018-05-16T14:10:32.510Z,22.1
2018-05-16T14:11:37.667Z,22.1
2018-05-16T14:12:43.081Z,22.1
2018-05-16T14:13:47.677Z,22.1
2018-05-16T14:14:53.103Z,22.1
2018-05-16T14:15:58.785Z,22.1
2018-05-16T14:17:03.688Z,22.1
2018-05-16T14:18:09.011Z,22.2
2018-05-16T14:19:13.987Z,22.3
2018-05-16T14:20:18.860Z,22.3
2018-05-16T14:21:24.306Z,22.3
2018-05-16T14:22:30.137Z,22.3
2018-05-16T14:23:35.567Z,22.3
2018-05-16T14:24:40.812Z,22.3
2018-05-16T14:25:46.246Z,22.4
2018-05-16T14:26:51.462Z,22.4
2018-05-16T14:27:57.155Z,22.3
2018-05-16T14:29:02.036Z,22.4
2018-05-16T14:30:07.473Z,22.3
2018-05-16T14:31:12.589Z,22.4
2018-05-16T14:32:17.743Z,22.4
2018-05-16T14:33:22.610Z,22.4
2018-05-16T14:34:43.057Z,22.4